YGCL weather

Gold Coast Life Saver Base
Carrara Gold Coast, Queensland, Australia

Public forecast

Using degrees Celsius for public forecast. Weather courtesy of forecast.io.

METAR (pilot weather report)

Closest report is Gold Coast Airport, 12.3 nm (22.7 km) SE. Retrieved 2019/02/19 23:30 UTC (24 minutes ago):

YBCG 192330Z AUTO 17008KT 140V200 9999 // BKN031 29/20 Q1009

TAF (pilot weather forecast)

Closest forecast is Gold Coast Airport, 12.3 nm (22.7 km) SE. Retrieved 2019/02/19 18:00 UTC (6 hours ago):

TAF YBCG 191704Z 1918/2018 21005KT 9999 BKN020 FM192200 16012KT 9999 FEW025 BKN035 FM200100 12014KT 9999 FEW030 FM200900 15012KT 9999 SCT020 FM201200 18008KT 9999 BKN018